Metar del Interior

METAR SGME 171200Z 12004KT CAVOK 21/17 Q1016=
METAR SGLV 171200Z 18003KT 9999 FEW015 SCT070 22/19 Q1015=
METAR SGPJ 171200Z 05012KT CAVOK 26/19 Q1016=
METAR SGPC 171200Z 16007KT CAVOK 21/16 Q1013=
METAR SGCO 171200Z 18010KT 9999 SCT015 BKN200 21/18 Q1014=
METAR SGSP 171200Z 14005KT 9999 OVC015 20/18 Q1011=
METAR SGGR 171200Z 36004KT 9999 OVC010 25/24 Q1012=
METAR SGVR 171200Z 18003KT 9999 OVC003 20/20 Q1013=
METAR SGPI 171200Z 20003KT 9999 OVC027 19/16 Q1014=
METAR SGSJ 171200Z 14004KT 9999 OVC013 19/16 Q1016=

TAF

TAF SGAS 170940Z 1712/1812 15008KT 9999 OVC008 TX31/1718Z TN20/1809Z PROB40 1713/1715
VRB03KT 9999 -RADZ BKN010 BECMG 1716/1719 12004KT 9999 BKN020 PROB40 1720/1722 9000
-TSRA BKN020 FEW040CB BECMG 1723/1802 09004KT 9999 BKN017 BECMG 1803/1806 VRB03KT 
9999 BKN010 PROB30 1809/1811 15004KT 9000 -TSRA BKN017 FEW040CB=

TAF SGES 170940Z 1712/1812 15007KT 9999 BKN027 TX32/1718Z TN21/1809Z BECMG 1715/1718
9999 BKN020 PROB30 1719/1721 VRB03KT 9000 -TSRA BKN017 FEW040CB BECMG 1722/1801 12004KT
9999 BKN020 PROB40 1805/1807 9000 -RA BKN017=

TAF SGEN 170940Z 1712/1812 17007KT 9999 -RA BKN017 TX26/1718Z TN18/1809Z BECMG 1713/1715
9999 BKN017 PROB30 1718/1721 09004KT 9000 -TSRA BKN017 FEW040CB BECMG 1722/1801 VRB03KT
9999 BKN010 PROB40 1805/1807 12005KT 9000 -TSRA BKN010 FEW040CB=

TAF SGCO 170940Z 1712/1812 15004KT 9999 BKN017 TX34/1718Z TN21/1809Z PROB40 1717/1719
VRB03KT 9000 -TSRA BKN017 FEW040CB BECMG 1720/1722 17007KT 9999 BKN020 BECMG 1806/1809
VRB03KT 9999 BKN017=

La siguiente información es orientativa, no constituyendo documentación de vuelo. Para disponer de la misma se deberá solicitar a la Oficina Vigilancia Meteorológica (OVM) / Oficina ARO/AIS (Aeronautical Report Office/Aeronautical Information Service) del aeródromo de salida. Asimismo la Dirección de Meteorología e Hidrología no se responsabiliza por los perjuicios que pudieran ocasionarse a los "usuarios" y/o a terceros y/o a bienes, debido a las acciones o decisiones adoptadas o dejadas de adoptar en función de la información meteorológica suministrada.